sensor_id;sensor_type;location;lat;lon;timestamp;P1;durP1;ratioP1;P2;durP2;ratioP2
10667;SDS011;5382;42.136;24.796;2023-06-14T00:01:19;9.60;;;6.78;;
10667;SDS011;5382;42.136;24.796;2023-06-14T00:03:47;8.68;;;6.85;;
10667;SDS011;5382;42.136;24.796;2023-06-14T00:06:14;8.85;;;6.90;;
10667;SDS011;5382;42.136;24.796;2023-06-14T00:08:41;9.50;;;6.55;;
10667;SDS011;5382;42.136;24.796;2023-06-14T00:11:07;6.88;;;6.38;;
10667;SDS011;5382;42.136;24.796;2023-06-14T00:13:36;6.72;;;6.22;;
10667;SDS011;5382;42.136;24.796;2023-06-14T00:16:03;7.15;;;6.55;;
10667;SDS011;5382;42.136;24.796;2023-06-14T00:18:30;6.97;;;6.35;;
10667;SDS011;5382;42.136;24.796;2023-06-14T00:20:57;7.28;;;6.57;;
10667;SDS011;5382;42.136;24.796;2023-06-14T00:23:24;7.00;;;6.40;;
10667;SDS011;5382;42.136;24.796;2023-06-14T00:25:51;7.85;;;7.07;;
10667;SDS011;5382;42.136;24.796;2023-06-14T00:28:18;8.18;;;7.30;;
10667;SDS011;5382;42.136;24.796;2023-06-14T00:30:46;7.50;;;6.80;;
10667;SDS011;5382;42.136;24.796;2023-06-14T00:33:13;8.02;;;7.22;;
10667;SDS011;5382;42.136;24.796;2023-06-14T00:35:40;7.65;;;6.93;;
10667;SDS011;5382;42.136;24.796;2023-06-14T00:38:07;7.07;;;6.43;;
10667;SDS011;5382;42.136;24.796;2023-06-14T00:40:33;8.02;;;7.30;;
10667;SDS011;5382;42.136;24.796;2023-06-14T00:43:00;7.43;;;6.72;;
10667;SDS011;5382;42.136;24.796;2023-06-14T00:45:27;7.40;;;6.63;;
10667;SDS011;5382;42.136;24.796;2023-06-14T00:47:57;9.02;;;7.00;;
10667;SDS011;5382;42.136;24.796;2023-06-14T00:50:25;7.72;;;6.55;;
10667;SDS011;5382;42.136;24.796;2023-06-14T00:52:52;8.30;;;7.40;;
10667;SDS011;5382;42.136;24.796;2023-06-14T00:55:19;8.13;;;7.32;;
10667;SDS011;5382;42.136;24.796;2023-06-14T00:57:46;7.38;;;6.70;;
10667;SDS011;5382;42.136;24.796;2023-06-14T01:00:13;7.47;;;6.78;;
10667;SDS011;5382;42.136;24.796;2023-06-14T01:02:40;7.57;;;6.88;;
10667;SDS011;5382;42.136;24.796;2023-06-14T01:05:09;11.05;;;7.10;;
10667;SDS011;5382;42.136;24.796;2023-06-14T01:07:43;7.78;;;6.97;;
10667;SDS011;5382;42.136;24.796;2023-06-14T01:10:25;7.93;;;7.18;;
10667;SDS011;5382;42.136;24.796;2023-06-14T01:12:59;10.00;;;7.38;;
10667;SDS011;5382;42.136;24.796;2023-06-14T01:15:33;8.43;;;7.72;;
10667;SDS011;5382;42.136;24.796;2023-06-14T01:18:01;7.97;;;7.28;;
10667;SDS011;5382;42.136;24.796;2023-06-14T01:20:31;8.32;;;7.53;;
10667;SDS011;5382;42.136;24.796;2023-06-14T01:23:03;8.93;;;7.93;;
10667;SDS011;5382;42.136;24.796;2023-06-14T01:25:30;8.13;;;7.32;;
10667;SDS011;5382;42.136;24.796;2023-06-14T01:27:57;8.50;;;7.68;;
10667;SDS011;5382;42.136;24.796;2023-06-14T01:30:26;8.80;;;8.05;;
10667;SDS011;5382;42.136;24.796;2023-06-14T01:32:54;9.60;;;8.77;;
10667;SDS011;5382;42.136;24.796;2023-06-14T01:35:22;8.88;;;7.97;;
10667;SDS011;5382;42.136;24.796;2023-06-14T01:37:49;9.55;;;8.60;;
10667;SDS011;5382;42.136;24.796;2023-06-14T01:40:18;9.80;;;7.90;;
10667;SDS011;5382;42.136;24.796;2023-06-14T01:42:47;11.95;;;8.40;;
10667;SDS011;5382;42.136;24.796;2023-06-14T01:45:16;9.70;;;8.80;;
10667;SDS011;5382;42.136;24.796;2023-06-14T01:47:44;8.80;;;8.10;;
10667;SDS011;5382;42.136;24.796;2023-06-14T01:50:29;9.70;;;8.68;;
10667;SDS011;5382;42.136;24.796;2023-06-14T01:52:57;9.23;;;8.23;;
10667;SDS011;5382;42.136;24.796;2023-06-14T01:55:24;9.27;;;8.38;;
10667;SDS011;5382;42.136;24.796;2023-06-14T01:57:51;8.02;;;6.90;;
10667;SDS011;5382;42.136;24.796;2023-06-14T02:00:18;8.90;;;7.93;;
10667;SDS011;5382;42.136;24.796;2023-06-14T02:02:46;8.07;;;7.38;;
10667;SDS011;5382;42.136;24.796;2023-06-14T02:05:14;8.07;;;7.38;;
10667;SDS011;5382;42.136;24.796;2023-06-14T02:07:45;8.40;;;7.60;;
10667;SDS011;5382;42.136;24.796;2023-06-14T02:10:12;8.48;;;7.63;;
10667;SDS011;5382;42.136;24.796;2023-06-14T02:12:40;7.85;;;7.05;;
10667;SDS011;5382;42.136;24.796;2023-06-14T02:15:07;7.95;;;6.72;;
10667;SDS011;5382;42.136;24.796;2023-06-14T02:17:42;7.50;;;6.78;;
10667;SDS011;5382;42.136;24.796;2023-06-14T02:20:09;8.18;;;6.90;;
10667;SDS011;5382;42.136;24.796;2023-06-14T02:22:36;7.20;;;6.43;;
10667;SDS011;5382;42.136;24.796;2023-06-14T02:25:04;7.32;;;6.63;;
10667;SDS011;5382;42.136;24.796;2023-06-14T02:27:31;6.60;;;5.97;;
10667;SDS011;5382;42.136;24.796;2023-06-14T02:29:58;7.45;;;6.03;;
10667;SDS011;5382;42.136;24.796;2023-06-14T02:32:25;7.03;;;6.28;;
10667;SDS011;5382;42.136;24.796;2023-06-14T02:34:52;9.57;;;6.80;;
10667;SDS011;5382;42.136;24.796;2023-06-14T02:37:19;8.13;;;6.13;;
10667;SDS011;5382;42.136;24.796;2023-06-14T02:39:47;7.80;;;7.05;;
10667;SDS011;5382;42.136;24.796;2023-06-14T02:42:15;7.55;;;6.85;;
10667;SDS011;5382;42.136;24.796;2023-06-14T02:44:41;6.63;;;6.03;;
10667;SDS011;5382;42.136;24.796;2023-06-14T02:47:10;8.43;;;6.35;;
10667;SDS011;5382;42.136;24.796;2023-06-14T02:49:37;6.57;;;5.97;;
10667;SDS011;5382;42.136;24.796;2023-06-14T02:52:05;7.55;;;6.22;;
10667;SDS011;5382;42.136;24.796;2023-06-14T02:54:34;7.63;;;6.30;;
10667;SDS011;5382;42.136;24.796;2023-06-14T02:57:01;6.70;;;6.00;;
10667;SDS011;5382;42.136;24.796;2023-06-14T02:59:29;8.35;;;6.43;;
10667;SDS011;5382;42.136;24.796;2023-06-14T03:01:56;7.15;;;6.60;;
10667;SDS011;5382;42.136;24.796;2023-06-14T03:04:23;7.07;;;6.47;;
10667;SDS011;5382;42.136;24.796;2023-06-14T03:06:52;8.38;;;7.05;;
10667;SDS011;5382;42.136;24.796;2023-06-14T03:09:19;7.30;;;6.65;;
10667;SDS011;5382;42.136;24.796;2023-06-14T03:11:46;7.72;;;6.55;;
10667;SDS011;5382;42.136;24.796;2023-06-14T03:14:12;7.03;;;6.43;;
10667;SDS011;5382;42.136;24.796;2023-06-14T03:16:41;8.05;;;7.25;;
10667;SDS011;5382;42.136;24.796;2023-06-14T03:19:08;7.07;;;6.05;;
10667;SDS011;5382;42.136;24.796;2023-06-14T03:21:34;7.63;;;6.90;;
10667;SDS011;5382;42.136;24.796;2023-06-14T03:24:01;8.32;;;7.32;;
10667;SDS011;5382;42.136;24.796;2023-06-14T03:26:28;10.07;;;7.13;;
10667;SDS011;5382;42.136;24.796;2023-06-14T03:28:57;9.82;;;7.18;;
10667;SDS011;5382;42.136;24.796;2023-06-14T03:31:24;8.38;;;7.57;;
10667;SDS011;5382;42.136;24.796;2023-06-14T03:33:52;7.93;;;7.13;;
10667;SDS011;5382;42.136;24.796;2023-06-14T03:36:19;14.15;;;7.32;;
10667;SDS011;5382;42.136;24.796;2023-06-14T03:38:46;9.30;;;7.55;;
10667;SDS011;5382;42.136;24.796;2023-06-14T03:41:12;9.80;;;8.52;;
10667;SDS011;5382;42.136;24.796;2023-06-14T03:43:39;7.30;;;6.57;;
10667;SDS011;5382;42.136;24.796;2023-06-14T03:46:06;7.30;;;6.70;;
10667;SDS011;5382;42.136;24.796;2023-06-14T03:48:33;6.88;;;6.10;;
10667;SDS011;5382;42.136;24.796;2023-06-14T03:51:01;8.25;;;6.70;;
10667;SDS011;5382;42.136;24.796;2023-06-14T03:53:28;8.38;;;6.45;;
10667;SDS011;5382;42.136;24.796;2023-06-14T03:55:55;7.43;;;6.43;;
10667;SDS011;5382;42.136;24.796;2023-06-14T03:58:22;10.20;;;8.27;;
10667;SDS011;5382;42.136;24.796;2023-06-14T04:00:49;8.13;;;6.50;;
10667;SDS011;5382;42.136;24.796;2023-06-14T04:03:16;7.20;;;6.05;;
10667;SDS011;5382;42.136;24.796;2023-06-14T04:05:44;7.80;;;6.95;;
10667;SDS011;5382;42.136;24.796;2023-06-14T04:08:15;7.80;;;6.15;;
10667;SDS011;5382;42.136;24.796;2023-06-14T04:10:44;7.40;;;6.22;;
10667;SDS011;5382;42.136;24.796;2023-06-14T04:13:11;9.70;;;6.28;;
10667;SDS011;5382;42.136;24.796;2023-06-14T04:15:38;6.60;;;5.97;;
10667;SDS011;5382;42.136;24.796;2023-06-14T04:18:07;6.15;;;5.47;;
10667;SDS011;5382;42.136;24.796;2023-06-14T04:20:34;7.10;;;5.68;;
10667;SDS011;5382;42.136;24.796;2023-06-14T04:23:10;11.10;;;5.70;;
10667;SDS011;5382;42.136;24.796;2023-06-14T04:25:39;6.88;;;4.90;;
10667;SDS011;5382;42.136;24.796;2023-06-14T04:28:10;12.73;;;5.15;;
10667;SDS011;5382;42.136;24.796;2023-06-14T04:30:39;9.43;;;5.95;;
10667;SDS011;5382;42.136;24.796;2023-06-14T04:33:06;9.60;;;5.45;;
10667;SDS011;5382;42.136;24.796;2023-06-14T04:35:33;7.53;;;5.85;;
10667;SDS011;5382;42.136;24.796;2023-06-14T04:38:02;5.93;;;5.32;;
10667;SDS011;5382;42.136;24.796;2023-06-14T04:40:30;9.85;;;6.40;;
10667;SDS011;5382;42.136;24.796;2023-06-14T04:42:58;7.13;;;4.57;;
10667;SDS011;5382;42.136;24.796;2023-06-14T04:45:26;8.98;;;5.97;;
10667;SDS011;5382;42.136;24.796;2023-06-14T04:47:58;7.05;;;5.38;;
10667;SDS011;5382;42.136;24.796;2023-06-14T04:50:25;7.18;;;6.47;;
10667;SDS011;5382;42.136;24.796;2023-06-14T04:52:52;9.20;;;5.65;;
10667;SDS011;5382;42.136;24.796;2023-06-14T04:55:20;9.35;;;6.10;;
10667;SDS011;5382;42.136;24.796;2023-06-14T04:57:47;7.90;;;5.65;;
10667;SDS011;5382;42.136;24.796;2023-06-14T05:00:15;6.30;;;5.70;;
10667;SDS011;5382;42.136;24.796;2023-06-14T05:02:43;9.15;;;5.57;;
10667;SDS011;5382;42.136;24.796;2023-06-14T05:05:09;8.45;;;5.50;;
10667;SDS011;5382;42.136;24.796;2023-06-14T05:07:36;10.32;;;5.97;;
10667;SDS011;5382;42.136;24.796;2023-06-14T05:10:03;11.65;;;5.93;;
10667;SDS011;5382;42.136;24.796;2023-06-14T05:12:31;10.80;;;6.35;;
10667;SDS011;5382;42.136;24.796;2023-06-14T05:14:59;9.95;;;6.00;;
10667;SDS011;5382;42.136;24.796;2023-06-14T05:17:27;11.35;;;6.18;;
10667;SDS011;5382;42.136;24.796;2023-06-14T05:19:54;9.38;;;6.32;;
10667;SDS011;5382;42.136;24.796;2023-06-14T05:22:21;9.45;;;6.57;;
10667;SDS011;5382;42.136;24.796;2023-06-14T05:24:47;63.65;;;9.13;;
10667;SDS011;5382;42.136;24.796;2023-06-14T05:27:14;10.63;;;6.35;;
10667;SDS011;5382;42.136;24.796;2023-06-14T05:29:42;8.60;;;6.03;;
10667;SDS011;5382;42.136;24.796;2023-06-14T05:32:09;8.77;;;6.78;;
10667;SDS011;5382;42.136;24.796;2023-06-14T05:34:37;9.18;;;6.55;;
10667;SDS011;5382;42.136;24.796;2023-06-14T05:37:04;10.95;;;6.97;;
10667;SDS011;5382;42.136;24.796;2023-06-14T05:39:31;11.27;;;6.43;;
10667;SDS011;5382;42.136;24.796;2023-06-14T05:41:57;9.50;;;6.60;;
10667;SDS011;5382;42.136;24.796;2023-06-14T05:44:24;9.27;;;7.43;;
10667;SDS011;5382;42.136;24.796;2023-06-14T05:46:51;11.40;;;7.28;;
10667;SDS011;5382;42.136;24.796;2023-06-14T05:49:18;17.77;;;8.02;;
10667;SDS011;5382;42.136;24.796;2023-06-14T05:51:46;9.35;;;8.32;;
10667;SDS011;5382;42.136;24.796;2023-06-14T05:54:13;9.68;;;7.85;;
10667;SDS011;5382;42.136;24.796;2023-06-14T05:56:40;9.77;;;8.02;;
10667;SDS011;5382;42.136;24.796;2023-06-14T05:59:06;10.13;;;7.75;;
10667;SDS011;5382;42.136;24.796;2023-06-14T06:01:33;10.10;;;7.78;;
10667;SDS011;5382;42.136;24.796;2023-06-14T06:04:01;9.57;;;8.57;;
10667;SDS011;5382;42.136;24.796;2023-06-14T06:06:28;13.90;;;8.90;;
10667;SDS011;5382;42.136;24.796;2023-06-14T06:08:56;9.88;;;8.82;;
10667;SDS011;5382;42.136;24.796;2023-06-14T06:11:23;9.18;;;8.27;;
10667;SDS011;5382;42.136;24.796;2023-06-14T06:13:51;9.73;;;8.77;;
10667;SDS011;5382;42.136;24.796;2023-06-14T06:16:18;10.27;;;8.52;;
10667;SDS011;5382;42.136;24.796;2023-06-14T06:18:44;15.93;;;12.75;;
10667;SDS011;5382;42.136;24.796;2023-06-14T06:21:11;12.70;;;11.45;;
10667;SDS011;5382;42.136;24.796;2023-06-14T06:23:38;13.43;;;10.38;;
10667;SDS011;5382;42.136;24.796;2023-06-14T06:26:06;12.57;;;9.82;;
10667;SDS011;5382;42.136;24.796;2023-06-14T06:28:33;11.18;;;9.02;;
10667;SDS011;5382;42.136;24.796;2023-06-14T06:31:00;15.35;;;10.02;;
10667;SDS011;5382;42.136;24.796;2023-06-14T06:33:28;11.00;;;9.80;;
10667;SDS011;5382;42.136;24.796;2023-06-14T06:35:55;11.43;;;10.13;;
10667;SDS011;5382;42.136;24.796;2023-06-14T06:38:22;11.07;;;10.07;;
10667;SDS011;5382;42.136;24.796;2023-06-14T06:40:49;14.68;;;10.82;;
10667;SDS011;5382;42.136;24.796;2023-06-14T06:43:17;12.50;;;11.30;;
10667;SDS011;5382;42.136;24.796;2023-06-14T06:45:44;11.73;;;10.48;;
10667;SDS011;5382;42.136;24.796;2023-06-14T06:48:11;12.93;;;10.70;;
10667;SDS011;5382;42.136;24.796;2023-06-14T06:50:38;11.95;;;10.75;;
10667;SDS011;5382;42.136;24.796;2023-06-14T06:53:05;15.80;;;10.63;;
10667;SDS011;5382;42.136;24.796;2023-06-14T06:55:32;12.68;;;11.50;;
10667;SDS011;5382;42.136;24.796;2023-06-14T06:57:59;11.75;;;10.60;;
10667;SDS011;5382;42.136;24.796;2023-06-14T07:00:27;12.80;;;10.90;;
10667;SDS011;5382;42.136;24.796;2023-06-14T07:02:54;14.15;;;11.35;;
10667;SDS011;5382;42.136;24.796;2023-06-14T07:05:22;13.90;;;11.75;;
10667;SDS011;5382;42.136;24.796;2023-06-14T07:07:49;12.82;;;11.18;;
10667;SDS011;5382;42.136;24.796;2023-06-14T07:10:16;12.35;;;10.93;;
10667;SDS011;5382;42.136;24.796;2023-06-14T07:12:43;13.65;;;11.02;;
10667;SDS011;5382;42.136;24.796;2023-06-14T07:15:11;14.60;;;11.10;;
10667;SDS011;5382;42.136;24.796;2023-06-14T07:17:39;12.20;;;10.48;;
10667;SDS011;5382;42.136;24.796;2023-06-14T07:20:07;13.45;;;11.38;;
10667;SDS011;5382;42.136;24.796;2023-06-14T07:22:39;14.57;;;11.07;;
10667;SDS011;5382;42.136;24.796;2023-06-14T07:25:07;13.05;;;10.65;;
10667;SDS011;5382;42.136;24.796;2023-06-14T07:27:35;12.57;;;11.27;;
10667;SDS011;5382;42.136;24.796;2023-06-14T07:30:02;12.68;;;11.45;;
10667;SDS011;5382;42.136;24.796;2023-06-14T07:32:29;12.98;;;11.50;;
10667;SDS011;5382;42.136;24.796;2023-06-14T07:34:57;17.17;;;12.02;;
10667;SDS011;5382;42.136;24.796;2023-06-14T07:37:24;15.50;;;11.13;;
10667;SDS011;5382;42.136;24.796;2023-06-14T07:39:51;13.00;;;11.32;;
10667;SDS011;5382;42.136;24.796;2023-06-14T07:42:17;11.55;;;9.95;;
10667;SDS011;5382;42.136;24.796;2023-06-14T07:44:45;9.85;;;8.88;;
10667;SDS011;5382;42.136;24.796;2023-06-14T07:47:12;11.45;;;10.30;;
10667;SDS011;5382;42.136;24.796;2023-06-14T07:49:38;11.82;;;9.07;;
10667;SDS011;5382;42.136;24.796;2023-06-14T07:52:07;9.00;;;8.10;;
10667;SDS011;5382;42.136;24.796;2023-06-14T07:54:34;9.32;;;8.43;;
10667;SDS011;5382;42.136;24.796;2023-06-14T07:57:01;10.13;;;9.25;;
10667;SDS011;5382;42.136;24.796;2023-06-14T07:59:28;8.93;;;8.10;;
10667;SDS011;5382;42.136;24.796;2023-06-14T08:01:55;9.80;;;8.25;;
10667;SDS011;5382;42.136;24.796;2023-06-14T08:04:22;9.30;;;7.95;;
10667;SDS011;5382;42.136;24.796;2023-06-14T08:06:50;9.88;;;8.18;;
10667;SDS011;5382;42.136;24.796;2023-06-14T08:09:19;8.45;;;7.50;;
10667;SDS011;5382;42.136;24.796;2023-06-14T08:11:46;9.43;;;8.50;;
10667;SDS011;5382;42.136;24.796;2023-06-14T08:14:12;8.70;;;7.90;;
10667;SDS011;5382;42.136;24.796;2023-06-14T08:16:39;9.38;;;7.50;;
10667;SDS011;5382;42.136;24.796;2023-06-14T08:19:06;7.72;;;6.95;;
10667;SDS011;5382;42.136;24.796;2023-06-14T08:21:33;7.90;;;6.70;;
10667;SDS011;5382;42.136;24.796;2023-06-14T08:24:01;8.02;;;6.70;;
10667;SDS011;5382;42.136;24.796;2023-06-14T08:26:30;8.55;;;7.70;;
10667;SDS011;5382;42.136;24.796;2023-06-14T08:28:57;11.27;;;6.75;;
10667;SDS011;5382;42.136;24.796;2023-06-14T08:31:24;7.72;;;6.60;;
10667;SDS011;5382;42.136;24.796;2023-06-14T08:33:52;7.65;;;6.88;;
10667;SDS011;5382;42.136;24.796;2023-06-14T08:36:19;6.65;;;6.05;;
10667;SDS011;5382;42.136;24.796;2023-06-14T08:38:48;7.65;;;6.45;;
10667;SDS011;5382;42.136;24.796;2023-06-14T08:41:17;7.85;;;6.03;;
10667;SDS011;5382;42.136;24.796;2023-06-14T08:43:49;8.05;;;5.88;;
10667;SDS011;5382;42.136;24.796;2023-06-14T08:46:17;8.05;;;5.10;;
10667;SDS011;5382;42.136;24.796;2023-06-14T08:48:48;5.65;;;5.13;;
10667;SDS011;5382;42.136;24.796;2023-06-14T08:51:16;6.60;;;5.82;;
10667;SDS011;5382;42.136;24.796;2023-06-14T08:53:47;7.53;;;6.53;;
10667;SDS011;5382;42.136;24.796;2023-06-14T08:56:18;7.22;;;6.63;;
10667;SDS011;5382;42.136;24.796;2023-06-14T08:58:45;8.48;;;7.53;;
10667;SDS011;5382;42.136;24.796;2023-06-14T09:01:15;7.55;;;6.78;;
10667;SDS011;5382;42.136;24.796;2023-06-14T09:03:44;8.13;;;7.43;;
10667;SDS011;5382;42.136;24.796;2023-06-14T09:06:13;7.38;;;6.68;;
10667;SDS011;5382;42.136;24.796;2023-06-14T09:08:41;9.55;;;7.32;;
10667;SDS011;5382;42.136;24.796;2023-06-14T09:11:10;11.63;;;7.50;;
10667;SDS011;5382;42.136;24.796;2023-06-14T09:13:39;8.02;;;7.22;;
10667;SDS011;5382;42.136;24.796;2023-06-14T09:16:07;7.35;;;6.63;;
10667;SDS011;5382;42.136;24.796;2023-06-14T09:18:38;7.70;;;6.95;;
10667;SDS011;5382;42.136;24.796;2023-06-14T09:21:08;7.43;;;6.82;;
10667;SDS011;5382;42.136;24.796;2023-06-14T09:23:36;7.53;;;6.93;;
10667;SDS011;5382;42.136;24.796;2023-06-14T09:26:07;7.35;;;6.65;;
10667;SDS011;5382;42.136;24.796;2023-06-14T09:28:35;7.88;;;7.18;;
10667;SDS011;5382;42.136;24.796;2023-06-14T09:31:02;8.80;;;7.18;;
10667;SDS011;5382;42.136;24.796;2023-06-14T09:33:30;9.50;;;7.80;;
10667;SDS011;5382;42.136;24.796;2023-06-14T09:35:59;8.23;;;7.38;;
10667;SDS011;5382;42.136;24.796;2023-06-14T09:38:26;7.18;;;6.50;;
10667;SDS011;5382;42.136;24.796;2023-06-14T09:40:54;7.35;;;6.63;;
10667;SDS011;5382;42.136;24.796;2023-06-14T09:43:23;11.57;;;7.45;;
10667;SDS011;5382;42.136;24.796;2023-06-14T09:45:51;7.53;;;6.80;;
10667;SDS011;5382;42.136;24.796;2023-06-14T09:48:20;7.55;;;6.20;;
10667;SDS011;5382;42.136;24.796;2023-06-14T09:50:47;20.60;;;14.10;;
10667;SDS011;5382;42.136;24.796;2023-06-14T09:53:19;8.70;;;7.80;;
10667;SDS011;5382;42.136;24.796;2023-06-14T09:55:48;9.43;;;7.82;;
10667;SDS011;5382;42.136;24.796;2023-06-14T09:58:17;7.70;;;6.95;;
10667;SDS011;5382;42.136;24.796;2023-06-14T10:00:46;7.68;;;6.97;;
10667;SDS011;5382;42.136;24.796;2023-06-14T10:03:19;8.35;;;7.65;;
10667;SDS011;5382;42.136;24.796;2023-06-14T10:05:50;8.05;;;7.35;;
10667;SDS011;5382;42.136;24.796;2023-06-14T10:08:19;15.02;;;7.75;;
10667;SDS011;5382;42.136;24.796;2023-06-14T10:10:50;8.23;;;7.45;;
10667;SDS011;5382;42.136;24.796;2023-06-14T10:13:17;8.60;;;7.70;;
10667;SDS011;5382;42.136;24.796;2023-06-14T10:15:51;14.35;;;7.45;;
10667;SDS011;5382;42.136;24.796;2023-06-14T10:18:25;7.75;;;6.80;;
10667;SDS011;5382;42.136;24.796;2023-06-14T10:21:03;7.35;;;6.55;;
10667;SDS011;5382;42.136;24.796;2023-06-14T10:23:37;11.15;;;10.15;;
10667;SDS011;5382;42.136;24.796;2023-06-14T10:26:07;8.50;;;7.72;;
10667;SDS011;5382;42.136;24.796;2023-06-14T10:28:36;7.93;;;7.22;;
10667;SDS011;5382;42.136;24.796;2023-06-14T10:31:04;8.48;;;7.60;;
10667;SDS011;5382;42.136;24.796;2023-06-14T10:33:34;9.10;;;8.27;;
10667;SDS011;5382;42.136;24.796;2023-06-14T10:39:01;8.43;;;7.63;;
10667;SDS011;5382;42.136;24.796;2023-06-14T10:41:31;9.40;;;8.60;;
10667;SDS011;5382;42.136;24.796;2023-06-14T10:47:00;9.15;;;7.82;;
10667;SDS011;5382;42.136;24.796;2023-06-14T10:49:37;8.98;;;8.18;;
10667;SDS011;5382;42.136;24.796;2023-06-14T10:52:07;12.95;;;9.23;;
10667;SDS011;5382;42.136;24.796;2023-06-14T10:55:00;10.30;;;8.15;;
10667;SDS011;5382;42.136;24.796;2023-06-14T10:57:29;8.40;;;7.60;;
10667;SDS011;5382;42.136;24.796;2023-06-14T10:59:57;8.18;;;7.38;;
10667;SDS011;5382;42.136;24.796;2023-06-14T11:02:37;8.63;;;7.82;;
10667;SDS011;5382;42.136;24.796;2023-06-14T11:05:16;8.93;;;7.80;;
10667;SDS011;5382;42.136;24.796;2023-06-14T11:07:55;9.38;;;8.50;;
10667;SDS011;5382;42.136;24.796;2023-06-14T11:10:43;9.88;;;8.48;;
10667;SDS011;5382;42.136;24.796;2023-06-14T11:13:10;9.77;;;8.80;;
10667;SDS011;5382;42.136;24.796;2023-06-14T11:15:38;9.35;;;8.32;;
10667;SDS011;5382;42.136;24.796;2023-06-14T11:18:09;9.30;;;8.18;;
10667;SDS011;5382;42.136;24.796;2023-06-14T11:20:36;9.88;;;8.93;;
10667;SDS011;5382;42.136;24.796;2023-06-14T11:23:03;9.95;;;9.00;;
10667;SDS011;5382;42.136;24.796;2023-06-14T11:25:30;9.27;;;8.48;;
10667;SDS011;5382;42.136;24.796;2023-06-14T11:27:59;9.20;;;8.38;;
10667;SDS011;5382;42.136;24.796;2023-06-14T11:30:26;8.90;;;8.13;;
10667;SDS011;5382;42.136;24.796;2023-06-14T11:32:53;8.88;;;8.07;;
10667;SDS011;5382;42.136;24.796;2023-06-14T11:35:21;10.20;;;9.02;;
10667;SDS011;5382;42.136;24.796;2023-06-14T11:37:49;18.65;;;8.98;;
10667;SDS011;5382;42.136;24.796;2023-06-14T11:40:20;8.77;;;7.97;;
10667;SDS011;5382;42.136;24.796;2023-06-14T11:42:54;9.48;;;8.57;;
10667;SDS011;5382;42.136;24.796;2023-06-14T11:45:26;9.40;;;8.45;;
10667;SDS011;5382;42.136;24.796;2023-06-14T11:47:54;9.48;;;8.60;;
10667;SDS011;5382;42.136;24.796;2023-06-14T11:50:22;10.32;;;9.30;;
10667;SDS011;5382;42.136;24.796;2023-06-14T11:52:52;9.70;;;8.80;;
10667;SDS011;5382;42.136;24.796;2023-06-14T11:55:19;10.15;;;9.10;;
10667;SDS011;5382;42.136;24.796;2023-06-14T11:57:46;15.52;;;9.68;;
10667;SDS011;5382;42.136;24.796;2023-06-14T12:00:15;10.45;;;9.52;;
10667;SDS011;5382;42.136;24.796;2023-06-14T12:02:43;10.30;;;9.30;;
10667;SDS011;5382;42.136;24.796;2023-06-14T12:05:20;12.57;;;9.70;;
10667;SDS011;5382;42.136;24.796;2023-06-14T12:07:48;10.38;;;9.48;;
10667;SDS011;5382;42.136;24.796;2023-06-14T12:10:15;10.27;;;9.27;;
10667;SDS011;5382;42.136;24.796;2023-06-14T12:12:42;11.85;;;10.02;;
10667;SDS011;5382;42.136;24.796;2023-06-14T12:15:09;12.77;;;9.13;;
10667;SDS011;5382;42.136;24.796;2023-06-14T12:17:38;10.13;;;9.30;;
10667;SDS011;5382;42.136;24.796;2023-06-14T12:20:08;10.13;;;9.13;;
10667;SDS011;5382;42.136;24.796;2023-06-14T12:22:38;10.35;;;9.35;;
10667;SDS011;5382;42.136;24.796;2023-06-14T12:25:06;11.82;;;9.57;;
10667;SDS011;5382;42.136;24.796;2023-06-14T12:27:34;10.90;;;9.90;;
10667;SDS011;5382;42.136;24.796;2023-06-14T12:30:01;10.82;;;9.82;;
10667;SDS011;5382;42.136;24.796;2023-06-14T12:32:30;12.93;;;10.05;;
10667;SDS011;5382;42.136;24.796;2023-06-14T12:34:58;11.70;;;10.50;;
10667;SDS011;5382;42.136;24.796;2023-06-14T12:37:25;10.65;;;9.63;;
10667;SDS011;5382;42.136;24.796;2023-06-14T12:39:52;10.52;;;9.52;;
10667;SDS011;5382;42.136;24.796;2023-06-14T12:42:18;14.38;;;9.55;;
10667;SDS011;5382;42.136;24.796;2023-06-14T12:44:45;10.07;;;8.73;;
10667;SDS011;5382;42.136;24.796;2023-06-14T12:47:12;10.10;;;9.07;;
10667;SDS011;5382;42.136;24.796;2023-06-14T12:49:39;11.77;;;8.75;;
10667;SDS011;5382;42.136;24.796;2023-06-14T12:52:09;9.68;;;8.77;;
10667;SDS011;5382;42.136;24.796;2023-06-14T12:54:35;10.38;;;9.38;;
10667;SDS011;5382;42.136;24.796;2023-06-14T12:57:04;10.32;;;8.63;;
10667;SDS011;5382;42.136;24.796;2023-06-14T12:59:31;9.13;;;8.32;;
10667;SDS011;5382;42.136;24.796;2023-06-14T13:02:00;9.57;;;8.68;;
10667;SDS011;5382;42.136;24.796;2023-06-14T13:04:37;9.68;;;8.65;;
10667;SDS011;5382;42.136;24.796;2023-06-14T13:07:04;9.38;;;8.45;;
10667;SDS011;5382;42.136;24.796;2023-06-14T13:09:33;9.63;;;8.63;;
10667;SDS011;5382;42.136;24.796;2023-06-14T13:12:00;9.82;;;8.98;;
10667;SDS011;5382;42.136;24.796;2023-06-14T13:14:27;8.73;;;7.85;;
10667;SDS011;5382;42.136;24.796;2023-06-14T13:16:53;9.98;;;9.02;;
10667;SDS011;5382;42.136;24.796;2023-06-14T13:19:21;11.93;;;9.20;;
10667;SDS011;5382;42.136;24.796;2023-06-14T13:21:48;8.98;;;8.15;;
10667;SDS011;5382;42.136;24.796;2023-06-14T13:24:15;8.90;;;8.30;;
10667;SDS011;5382;42.136;24.796;2023-06-14T13:26:43;10.25;;;8.38;;
10667;SDS011;5382;42.136;24.796;2023-06-14T13:29:10;9.65;;;8.80;;
10667;SDS011;5382;42.136;24.796;2023-06-14T13:31:37;9.38;;;8.55;;
10667;SDS011;5382;42.136;24.796;2023-06-14T13:34:04;9.52;;;7.45;;
10667;SDS011;5382;42.136;24.796;2023-06-14T13:36:30;9.65;;;8.75;;
10667;SDS011;5382;42.136;24.796;2023-06-14T13:38:57;8.80;;;8.10;;
10667;SDS011;5382;42.136;24.796;2023-06-14T13:41:25;8.27;;;7.55;;
10667;SDS011;5382;42.136;24.796;2023-06-14T13:43:57;8.77;;;7.90;;
10667;SDS011;5382;42.136;24.796;2023-06-14T13:46:25;10.05;;;8.45;;
10667;SDS011;5382;42.136;24.796;2023-06-14T13:48:52;8.50;;;7.90;;
10667;SDS011;5382;42.136;24.796;2023-06-14T13:51:19;8.18;;;7.47;;
10667;SDS011;5382;42.136;24.796;2023-06-14T13:53:46;6.97;;;6.38;;
10667;SDS011;5382;42.136;24.796;2023-06-14T13:56:13;6.85;;;6.25;;
10667;SDS011;5382;42.136;24.796;2023-06-14T13:58:40;7.18;;;6.57;;
10667;SDS011;5382;42.136;24.796;2023-06-14T14:01:08;9.15;;;6.75;;
10667;SDS011;5382;42.136;24.796;2023-06-14T14:03:36;6.95;;;6.35;;
10667;SDS011;5382;42.136;24.796;2023-06-14T14:06:03;23.92;;;6.30;;
10667;SDS011;5382;42.136;24.796;2023-06-14T14:08:31;5.53;;;5.03;;
10667;SDS011;5382;42.136;24.796;2023-06-14T14:10:57;7.72;;;5.00;;
10667;SDS011;5382;42.136;24.796;2023-06-14T14:13:25;9.35;;;4.75;;
10667;SDS011;5382;42.136;24.796;2023-06-14T14:15:52;5.30;;;4.80;;
10667;SDS011;5382;42.136;24.796;2023-06-14T14:18:20;4.95;;;4.45;;
10667;SDS011;5382;42.136;24.796;2023-06-14T14:20:47;23.67;;;5.10;;
10667;SDS011;5382;42.136;24.796;2023-06-14T14:23:14;5.55;;;3.80;;
10667;SDS011;5382;42.136;24.796;2023-06-14T14:25:41;6.32;;;4.32;;
10667;SDS011;5382;42.136;24.796;2023-06-14T14:28:08;5.35;;;3.92;;
10667;SDS011;5382;42.136;24.796;2023-06-14T14:30:36;18.73;;;4.57;;
10667;SDS011;5382;42.136;24.796;2023-06-14T14:33:04;4.00;;;3.70;;
10667;SDS011;5382;42.136;24.796;2023-06-14T14:35:33;5.53;;;3.78;;
10667;SDS011;5382;42.136;24.796;2023-06-14T14:38:00;3.92;;;3.60;;
10667;SDS011;5382;42.136;24.796;2023-06-14T14:40:28;3.78;;;3.45;;
10667;SDS011;5382;42.136;24.796;2023-06-14T14:42:55;4.63;;;3.60;;
10667;SDS011;5382;42.136;24.796;2023-06-14T14:45:22;4.90;;;3.42;;
10667;SDS011;5382;42.136;24.796;2023-06-14T14:47:49;5.53;;;3.70;;
10667;SDS011;5382;42.136;24.796;2023-06-14T14:50:16;5.30;;;3.38;;
10667;SDS011;5382;42.136;24.796;2023-06-14T14:52:44;6.38;;;3.80;;
10667;SDS011;5382;42.136;24.796;2023-06-14T14:55:11;3.95;;;3.50;;